Current Weather

San Francisco Intl

San Francisco, California (KSFO)

Report from: Thursday, August 18, 2022 8:56 PM PDT
Current time: Thursday, August 18, 2022 9:33 PM PDT

Nearby weather
Weather history
Weather forecast

Temperature16.7°C (62.1°F)
Dew point13.9°C (57.0°F)
Winds 14 kts (7.2 m/s, 16.1 mph) West (280°)
Visibility10 mi. (16.1 km)
Clouds Few clouds 200 ft. (61 m)
Scattered clouds 800 ft. (244 m)
Altimeter29.94 in.Hg (1014 mB)
Relative humidity84 %
Density altitude399 ft. (122 m)
Sea-level pressure101.4 kPa (1014 mB, 29.93 in.Hg)
Remarks Automated weather observing station with precipitation discriminator
Flight conditions Visual Meteorological Conditions
Raw dataKSFO 190356Z 28014KT 10SM FEW002 SCT008 17/14 A2994 RMK AO2 SLP137 T01670139
An unhandled exception has occurred. See browser dev tools for details. Reload 🗙